sensor_id;sensor_type;location;lat;lon;timestamp;pressure;altitude;pressure_sealevel;temperature;humidity
14120;BME280;7138;49.246;9.100;2023-02-15T00:01:47;100160.50;;;3.62;100.00
14120;BME280;7138;49.246;9.100;2023-02-15T00:04:16;100157.81;;;3.59;100.00
14120;BME280;7138;49.246;9.100;2023-02-15T00:06:43;100157.75;;;3.57;100.00
14120;BME280;7138;49.246;9.100;2023-02-15T00:09:10;100156.84;;;3.57;100.00
14120;BME280;7138;49.246;9.100;2023-02-15T00:11:36;100151.53;;;3.52;100.00
14120;BME280;7138;49.246;9.100;2023-02-15T00:14:06;100150.97;;;3.58;100.00
14120;BME280;7138;49.246;9.100;2023-02-15T00:16:33;100156.72;;;3.54;100.00
14120;BME280;7138;49.246;9.100;2023-02-15T00:18:59;100147.28;;;3.53;100.00
14120;BME280;7138;49.246;9.100;2023-02-15T00:21:28;100125.09;;;3.36;100.00
14120;BME280;7138;49.246;9.100;2023-02-15T00:23:57;100109.31;;;3.26;100.00
14120;BME280;7138;49.246;9.100;2023-02-15T00:26:23;100146.97;;;3.47;100.00
14120;BME280;7138;49.246;9.100;2023-02-15T00:28:49;100137.88;;;3.52;100.00
14120;BME280;7138;49.246;9.100;2023-02-15T00:31:15;100146.03;;;3.45;100.00
14120;BME280;7138;49.246;9.100;2023-02-15T00:33:41;100145.28;;;3.47;100.00
14120;BME280;7138;49.246;9.100;2023-02-15T00:36:09;100139.81;;;3.40;100.00
14120;BME280;7138;49.246;9.100;2023-02-15T00:38:36;100144.19;;;3.42;100.00
14120;BME280;7138;49.246;9.100;2023-02-15T00:41:05;100132.03;;;3.38;100.00
14120;BME280;7138;49.246;9.100;2023-02-15T00:43:33;100144.09;;;3.41;100.00
14120;BME280;7138;49.246;9.100;2023-02-15T00:46:00;100133.81;;;3.39;100.00
14120;BME280;7138;49.246;9.100;2023-02-15T00:48:27;100145.84;;;3.42;100.00
14120;BME280;7138;49.246;9.100;2023-02-15T00:50:55;100132.19;;;3.41;100.00
14120;BME280;7138;49.246;9.100;2023-02-15T00:53:22;100125.50;;;3.43;100.00
14120;BME280;7138;49.246;9.100;2023-02-15T00:55:49;100133.47;;;3.49;100.00
14120;BME280;7138;49.246;9.100;2023-02-15T00:58:16;100134.28;;;3.48;100.00
14120;BME280;7138;49.246;9.100;2023-02-15T01:00:45;100133.47;;;3.49;100.00
14120;BME280;7138;49.246;9.100;2023-02-15T01:03:15;100123.94;;;3.47;100.00
14120;BME280;7138;49.246;9.100;2023-02-15T01:05:41;100131.63;;;3.47;100.00
14120;BME280;7138;49.246;9.100;2023-02-15T01:08:07;100138.50;;;3.48;100.00
14120;BME280;7138;49.246;9.100;2023-02-15T01:10:34;100117.53;;;3.37;100.00
14120;BME280;7138;49.246;9.100;2023-02-15T01:13:01;100134.34;;;3.50;100.00
14120;BME280;7138;49.246;9.100;2023-02-15T01:15:29;100122.06;;;3.43;100.00
14120;BME280;7138;49.246;9.100;2023-02-15T01:17:55;100138.97;;;3.41;100.00
14120;BME280;7138;49.246;9.100;2023-02-15T01:20:23;100134.44;;;3.35;100.00
14120;BME280;7138;49.246;9.100;2023-02-15T01:22:50;100133.56;;;3.35;100.00
14120;BME280;7138;49.246;9.100;2023-02-15T01:25:17;100131.72;;;3.32;100.00
14120;BME280;7138;49.246;9.100;2023-02-15T01:27:44;100126.00;;;3.36;100.00
14120;BME280;7138;49.246;9.100;2023-02-15T01:30:12;100124.16;;;3.34;100.00
14120;BME280;7138;49.246;9.100;2023-02-15T01:32:40;100130.22;;;3.36;100.00
14120;BME280;7138;49.246;9.100;2023-02-15T01:35:07;100124.22;;;3.35;100.00
14120;BME280;7138;49.246;9.100;2023-02-15T01:37:34;100136.06;;;3.33;100.00
14120;BME280;7138;49.246;9.100;2023-02-15T01:40:01;100134.53;;;3.20;100.00
14120;BME280;7138;49.246;9.100;2023-02-15T01:42:29;100126.97;;;3.22;100.00
14120;BME280;7138;49.246;9.100;2023-02-15T01:44:58;100122.41;;;3.16;100.00
14120;BME280;7138;49.246;9.100;2023-02-15T01:47:33;100126.72;;;3.17;100.00
14120;BME280;7138;49.246;9.100;2023-02-15T01:50:10;100122.59;;;3.03;100.00
14120;BME280;7138;49.246;9.100;2023-02-15T01:52:43;100114.69;;;2.99;100.00
14120;BME280;7138;49.246;9.100;2023-02-15T01:55:13;100109.66;;;3.00;100.00
14120;BME280;7138;49.246;9.100;2023-02-15T01:57:40;100111.25;;;2.98;100.00
14120;BME280;7138;49.246;9.100;2023-02-15T02:00:09;100110.38;;;2.98;100.00
14120;BME280;7138;49.246;9.100;2023-02-15T02:02:35;100109.66;;;3.00;100.00
14120;BME280;7138;49.246;9.100;2023-02-15T02:05:06;100111.97;;;2.96;100.00
14120;BME280;7138;49.246;9.100;2023-02-15T02:07:37;100099.91;;;2.93;100.00
14120;BME280;7138;49.246;9.100;2023-02-15T02:10:06;100101.53;;;2.91;100.00
14120;BME280;7138;49.246;9.100;2023-02-15T02:12:35;100097.53;;;2.96;100.00
14120;BME280;7138;49.246;9.100;2023-02-15T02:15:04;100099.59;;;2.87;100.00
14120;BME280;7138;49.246;9.100;2023-02-15T02:17:43;100093.88;;;2.91;100.00
14120;BME280;7138;49.246;9.100;2023-02-15T02:21:02;100095.84;;;2.97;100.00
14120;BME280;7138;49.246;9.100;2023-02-15T02:24:23;100095.06;;;2.98;100.00
14120;BME280;7138;49.246;9.100;2023-02-15T02:27:18;100099.13;;;2.94;100.00
14120;BME280;7138;49.246;9.100;2023-02-15T02:30:36;100091.38;;;2.93;100.00
14120;BME280;7138;49.246;9.100;2023-02-15T02:33:30;100084.22;;;2.86;100.00
14120;BME280;7138;49.246;9.100;2023-02-15T02:36:13;100092.66;;;2.85;100.00
14120;BME280;7138;49.246;9.100;2023-02-15T02:39:09;100087.78;;;2.89;100.00
14120;BME280;7138;49.246;9.100;2023-02-15T02:41:49;100087.88;;;2.91;100.00
14120;BME280;7138;49.246;9.100;2023-02-15T02:44:24;100081.88;;;2.90;100.00
14120;BME280;7138;49.246;9.100;2023-02-15T02:46:55;100075.72;;;2.87;100.00
14120;BME280;7138;49.246;9.100;2023-02-15T02:49:34;100062.91;;;2.85;100.00
14120;BME280;7138;49.246;9.100;2023-02-15T02:52:04;100081.97;;;2.92;100.00
14120;BME280;7138;49.246;9.100;2023-02-15T02:54:31;100077.56;;;2.89;100.00
14120;BME280;7138;49.246;9.100;2023-02-15T02:57:03;100082.66;;;2.89;100.00
14120;BME280;7138;49.246;9.100;2023-02-15T02:59:33;100081.66;;;2.86;100.00
14120;BME280;7138;49.246;9.100;2023-02-15T03:02:09;100079.91;;;2.85;100.00
14120;BME280;7138;49.246;9.100;2023-02-15T03:04:44;100080.63;;;2.82;100.00
14120;BME280;7138;49.246;9.100;2023-02-15T03:07:18;100071.81;;;2.77;100.00
14120;BME280;7138;49.246;9.100;2023-02-15T03:09:51;100074.88;;;2.70;100.00
14120;BME280;7138;49.246;9.100;2023-02-15T03:12:22;100050.28;;;2.56;100.00
14120;BME280;7138;49.246;9.100;2023-02-15T03:14:54;100061.38;;;2.72;100.00
14120;BME280;7138;49.246;9.100;2023-02-15T03:17:26;100057.31;;;2.60;100.00
14120;BME280;7138;49.246;9.100;2023-02-15T03:19:59;100061.47;;;2.58;100.00
14120;BME280;7138;49.246;9.100;2023-02-15T03:22:31;100059.84;;;2.60;100.00
14120;BME280;7138;49.246;9.100;2023-02-15T03:25:05;100067.75;;;2.48;100.00
14120;BME280;7138;49.246;9.100;2023-02-15T03:27:39;100075.41;;;2.48;100.00
14120;BME280;7138;49.246;9.100;2023-02-15T03:30:09;100076.13;;;2.46;100.00
14120;BME280;7138;49.246;9.100;2023-02-15T03:32:38;100074.09;;;2.40;100.00
14120;BME280;7138;49.246;9.100;2023-02-15T03:35:07;100083.47;;;2.40;100.00
14120;BME280;7138;49.246;9.100;2023-02-15T03:37:39;100079.69;;;2.49;100.00
14120;BME280;7138;49.246;9.100;2023-02-15T03:40:11;100083.28;;;2.53;100.00
14120;BME280;7138;49.246;9.100;2023-02-15T03:43:14;100085.94;;;2.54;100.00
14120;BME280;7138;49.246;9.100;2023-02-15T03:45:48;100081.56;;;2.52;100.00
14120;BME280;7138;49.246;9.100;2023-02-15T03:48:24;100086.41;;;2.47;100.00
14120;BME280;7138;49.246;9.100;2023-02-15T03:50:58;100085.03;;;2.38;100.00
14120;BME280;7138;49.246;9.100;2023-02-15T03:53:46;100073.38;;;2.27;100.00
14120;BME280;7138;49.246;9.100;2023-02-15T03:56:14;100072.94;;;2.19;100.00
14120;BME280;7138;49.246;9.100;2023-02-15T03:58:39;100076.22;;;2.16;100.00
14120;BME280;7138;49.246;9.100;2023-02-15T04:01:32;100065.28;;;2.19;100.00
14120;BME280;7138;49.246;9.100;2023-02-15T04:04:21;100079.94;;;2.07;100.00
14120;BME280;7138;49.246;9.100;2023-02-15T04:06:49;100081.72;;;2.08;100.00
14120;BME280;7138;49.246;9.100;2023-02-15T04:09:15;100081.09;;;2.12;100.00
14120;BME280;7138;49.246;9.100;2023-02-15T04:11:59;100072.88;;;2.17;100.00
14120;BME280;7138;49.246;9.100;2023-02-15T04:14:26;100075.16;;;2.28;100.00
14120;BME280;7138;49.246;9.100;2023-02-15T04:17:11;100068.28;;;2.27;100.00
14120;BME280;7138;49.246;9.100;2023-02-15T04:19:37;100070.84;;;2.27;100.00
14120;BME280;7138;49.246;9.100;2023-02-15T04:22:22;100060.47;;;2.24;100.00
14120;BME280;7138;49.246;9.100;2023-02-15T04:25:07;100073.06;;;2.20;100.00
14120;BME280;7138;49.246;9.100;2023-02-15T04:27:42;100068.13;;;2.24;100.00
14120;BME280;7138;49.246;9.100;2023-02-15T04:30:10;100069.56;;;2.18;100.00
14120;BME280;7138;49.246;9.100;2023-02-15T04:32:37;100068.84;;;2.21;100.00
14120;BME280;7138;49.246;9.100;2023-02-15T04:35:06;100065.63;;;2.25;100.00
14120;BME280;7138;49.246;9.100;2023-02-15T04:37:33;100063.34;;;2.30;100.00
14120;BME280;7138;49.246;9.100;2023-02-15T04:39:59;100064.22;;;2.30;100.00
14120;BME280;7138;49.246;9.100;2023-02-15T04:42:26;100074.34;;;2.29;100.00
14120;BME280;7138;49.246;9.100;2023-02-15T04:44:52;100073.38;;;2.27;100.00
14120;BME280;7138;49.246;9.100;2023-02-15T04:47:18;100065.00;;;2.29;100.00
14120;BME280;7138;49.246;9.100;2023-02-15T04:49:44;100061.91;;;2.35;100.00
14120;BME280;7138;49.246;9.100;2023-02-15T04:52:10;100056.72;;;2.33;100.00
14120;BME280;7138;49.246;9.100;2023-02-15T04:54:38;100056.47;;;2.29;100.00
14120;BME280;7138;49.246;9.100;2023-02-15T04:57:04;100061.41;;;2.26;100.00
14120;BME280;7138;49.246;9.100;2023-02-15T04:59:30;100058.97;;;2.27;100.00
14120;BME280;7138;49.246;9.100;2023-02-15T05:01:56;100058.78;;;2.24;100.00
14120;BME280;7138;49.246;9.100;2023-02-15T05:04:22;100050.41;;;2.27;100.00
14120;BME280;7138;49.246;9.100;2023-02-15T05:06:47;100059.03;;;2.29;100.00
14120;BME280;7138;49.246;9.100;2023-02-15T05:09:14;100061.41;;;2.26;100.00
14120;BME280;7138;49.246;9.100;2023-02-15T05:11:42;100057.03;;;2.23;100.00
14120;BME280;7138;49.246;9.100;2023-02-15T05:14:08;100057.13;;;2.25;100.00
14120;BME280;7138;49.246;9.100;2023-02-15T05:16:34;100060.00;;;2.31;100.00
14120;BME280;7138;49.246;9.100;2023-02-15T05:19:00;100064.22;;;2.30;100.00
14120;BME280;7138;49.246;9.100;2023-02-15T05:21:26;100057.63;;;2.34;100.00
14120;BME280;7138;49.246;9.100;2023-02-15T05:23:52;100054.25;;;2.35;100.00
14120;BME280;7138;49.246;9.100;2023-02-15T05:26:22;100054.03;;;2.30;100.00
14120;BME280;7138;49.246;9.100;2023-02-15T05:29:09;100052.97;;;2.27;100.00
14120;BME280;7138;49.246;9.100;2023-02-15T05:31:36;100045.31;;;2.27;100.00
14120;BME280;7138;49.246;9.100;2023-02-15T05:34:03;100047.59;;;2.22;100.00
14120;BME280;7138;49.246;9.100;2023-02-15T05:36:29;100037.56;;;2.25;100.00
14120;BME280;7138;49.246;9.100;2023-02-15T05:38:55;100023.81;;;2.07;100.00
14120;BME280;7138;49.246;9.100;2023-02-15T05:41:21;100037.19;;;2.17;100.00
14120;BME280;7138;49.246;9.100;2023-02-15T05:43:47;100031.56;;;2.08;100.00
14120;BME280;7138;49.246;9.100;2023-02-15T05:46:14;100031.41;;;2.05;100.00
14120;BME280;7138;49.246;9.100;2023-02-15T05:48:40;100023.50;;;2.01;100.00
14120;BME280;7138;49.246;9.100;2023-02-15T05:51:08;100028.69;;;2.02;100.00
14120;BME280;7138;49.246;9.100;2023-02-15T05:53:36;100038.00;;;2.02;100.00
14120;BME280;7138;49.246;9.100;2023-02-15T05:56:04;100033.38;;;1.95;100.00
14120;BME280;7138;49.246;9.100;2023-02-15T05:58:33;100043.13;;;2.02;100.00
14120;BME280;7138;49.246;9.100;2023-02-15T06:00:59;100053.31;;;2.02;100.00
14120;BME280;7138;49.246;9.100;2023-02-15T06:03:33;100055.97;;;2.03;100.00
14120;BME280;7138;49.246;9.100;2023-02-15T06:05:59;100069.56;;;2.04;100.00
14120;BME280;7138;49.246;9.100;2023-02-15T06:08:25;100072.22;;;2.05;100.00
14120;BME280;7138;49.246;9.100;2023-02-15T06:10:51;100070.06;;;2.13;100.00
14120;BME280;7138;49.246;9.100;2023-02-15T06:13:16;100081.16;;;2.13;100.00
14120;BME280;7138;49.246;9.100;2023-02-15T06:15:42;100071.13;;;2.16;100.00
14120;BME280;7138;49.246;9.100;2023-02-15T06:18:08;100063.41;;;2.15;100.00
14120;BME280;7138;49.246;9.100;2023-02-15T06:20:35;100066.00;;;2.16;100.00
14120;BME280;7138;49.246;9.100;2023-02-15T06:23:24;100070.50;;;2.20;100.00
14120;BME280;7138;49.246;9.100;2023-02-15T06:25:50;100075.50;;;2.19;100.00
14120;BME280;7138;49.246;9.100;2023-02-15T06:28:16;100078.00;;;2.17;100.00
14120;BME280;7138;49.246;9.100;2023-02-15T06:30:42;100079.81;;;2.20;100.00
14120;BME280;7138;49.246;9.100;2023-02-15T06:33:08;100083.25;;;2.20;100.00
14120;BME280;7138;49.246;9.100;2023-02-15T06:35:35;100076.38;;;2.19;100.00
14120;BME280;7138;49.246;9.100;2023-02-15T06:38:01;100078.22;;;2.22;100.00
14120;BME280;7138;49.246;9.100;2023-02-15T06:40:27;100077.53;;;2.25;100.00
14120;BME280;7138;49.246;9.100;2023-02-15T06:42:53;100088.59;;;2.25;100.00
14120;BME280;7138;49.246;9.100;2023-02-15T06:45:19;100093.47;;;2.20;100.00
14120;BME280;7138;49.246;9.100;2023-02-15T06:47:44;100092.56;;;2.20;100.00
14120;BME280;7138;49.246;9.100;2023-02-15T06:50:11;100084.13;;;2.21;100.00
14120;BME280;7138;49.246;9.100;2023-02-15T06:52:38;100089.56;;;2.27;100.00
14120;BME280;7138;49.246;9.100;2023-02-15T06:55:05;100088.53;;;2.24;100.00
14120;BME280;7138;49.246;9.100;2023-02-15T06:57:31;100097.28;;;2.12;100.00
14120;BME280;7138;49.246;9.100;2023-02-15T06:59:58;100096.47;;;2.13;100.00
14120;BME280;7138;49.246;9.100;2023-02-15T07:02:25;100097.97;;;2.10;100.00
14120;BME280;7138;49.246;9.100;2023-02-15T07:04:51;100102.81;;;2.05;100.00
14120;BME280;7138;49.246;9.100;2023-02-15T07:07:16;100102.22;;;2.09;100.00
14120;BME280;7138;49.246;9.100;2023-02-15T07:09:44;100102.22;;;2.09;100.00
14120;BME280;7138;49.246;9.100;2023-02-15T07:12:10;100104.22;;;2.15;100.00
14120;BME280;7138;49.246;9.100;2023-02-15T07:14:54;100098.22;;;2.14;100.00
14120;BME280;7138;49.246;9.100;2023-02-15T07:17:20;100098.06;;;2.11;100.00
14120;BME280;7138;49.246;9.100;2023-02-15T07:19:46;100094.72;;;2.12;100.00
14120;BME280;7138;49.246;9.100;2023-02-15T07:22:11;100094.38;;;2.06;100.00
14120;BME280;7138;49.246;9.100;2023-02-15T07:24:37;100085.75;;;2.04;100.00
14120;BME280;7138;49.246;9.100;2023-02-15T07:27:06;100094.56;;;2.09;100.00
14120;BME280;7138;49.246;9.100;2023-02-15T07:29:32;100088.31;;;2.04;100.00
14120;BME280;7138;49.246;9.100;2023-02-15T07:31:58;100093.69;;;2.09;100.00
14120;BME280;7138;49.246;9.100;2023-02-15T07:34:24;100094.56;;;2.09;100.00
14120;BME280;7138;49.246;9.100;2023-02-15T07:36:51;100087.53;;;2.05;100.00
14120;BME280;7138;49.246;9.100;2023-02-15T07:39:17;100083.13;;;2.03;100.00
14120;BME280;7138;49.246;9.100;2023-02-15T07:41:43;100085.41;;;1.98;100.00
14120;BME280;7138;49.246;9.100;2023-02-15T07:44:14;100093.94;;;1.99;100.00
14120;BME280;7138;49.246;9.100;2023-02-15T07:46:40;100096.66;;;2.02;100.00
14120;BME280;7138;49.246;9.100;2023-02-15T07:49:06;100080.97;;;1.94;100.00
14120;BME280;7138;49.246;9.100;2023-02-15T07:51:32;100092.34;;;2.01;100.00
14120;BME280;7138;49.246;9.100;2023-02-15T07:53:58;100088.56;;;2.09;100.00
14120;BME280;7138;49.246;9.100;2023-02-15T07:56:24;100094.78;;;2.14;100.00
14120;BME280;7138;49.246;9.100;2023-02-15T07:58:50;100104.38;;;2.18;100.00
14120;BME280;7138;49.246;9.100;2023-02-15T08:01:19;100102.06;;;2.22;100.00
14120;BME280;7138;49.246;9.100;2023-02-15T08:03:45;100108.66;;;2.19;100.00
14120;BME280;7138;49.246;9.100;2023-02-15T08:06:11;100107.97;;;2.22;100.00
14120;BME280;7138;49.246;9.100;2023-02-15T08:08:39;100109.09;;;2.27;100.00
14120;BME280;7138;49.246;9.100;2023-02-15T08:11:14;100108.72;;;2.35;100.00
14120;BME280;7138;49.246;9.100;2023-02-15T08:13:58;100104.72;;;2.40;100.00
14120;BME280;7138;49.246;9.100;2023-02-15T08:16:33;100105.06;;;2.46;100.00
14120;BME280;7138;49.246;9.100;2023-02-15T08:19:02;100099.94;;;2.46;100.00
14120;BME280;7138;49.246;9.100;2023-02-15T08:21:29;100098.53;;;2.51;100.00
14120;BME280;7138;49.246;9.100;2023-02-15T08:23:57;100092.47;;;2.49;100.00
14120;BME280;7138;49.246;9.100;2023-02-15T08:26:24;100084.56;;;2.45;100.00
14120;BME280;7138;49.246;9.100;2023-02-15T08:28:51;100092.88;;;2.57;100.00
14120;BME280;7138;49.246;9.100;2023-02-15T08:31:18;100073.19;;;2.54;100.00
14120;BME280;7138;49.246;9.100;2023-02-15T08:33:48;100080.84;;;2.54;100.00
14120;BME280;7138;49.246;9.100;2023-02-15T08:36:17;100091.69;;;2.66;100.00
14120;BME280;7138;49.246;9.100;2023-02-15T08:38:44;100089.06;;;2.65;100.00
14120;BME280;7138;49.246;9.100;2023-02-15T08:41:13;100078.34;;;2.56;100.00
14120;BME280;7138;49.246;9.100;2023-02-15T08:43:40;100086.09;;;2.57;100.00
14120;BME280;7138;49.246;9.100;2023-02-15T08:46:07;100088.88;;;2.62;100.00
14120;BME280;7138;49.246;9.100;2023-02-15T08:48:34;100087.00;;;2.58;100.00
14120;BME280;7138;49.246;9.100;2023-02-15T08:51:07;100079.72;;;2.65;100.00
14120;BME280;7138;49.246;9.100;2023-02-15T08:53:33;100079.25;;;2.72;100.00
14120;BME280;7138;49.246;9.100;2023-02-15T08:55:59;100076.28;;;2.81;100.00
14120;BME280;7138;49.246;9.100;2023-02-15T08:58:25;100072.97;;;2.82;100.00
14120;BME280;7138;49.246;9.100;2023-02-15T09:00:52;100065.78;;;2.91;100.00
14120;BME280;7138;49.246;9.100;2023-02-15T09:03:17;100068.72;;;2.83;100.00
14120;BME280;7138;49.246;9.100;2023-02-15T09:05:43;100061.44;;;2.74;100.00
14120;BME280;7138;49.246;9.100;2023-02-15T09:08:10;100067.75;;;2.81;100.00
14120;BME280;7138;49.246;9.100;2023-02-15T09:10:36;100069.53;;;2.82;100.00
14120;BME280;7138;49.246;9.100;2023-02-15T09:13:02;100071.19;;;2.81;100.00
14120;BME280;7138;49.246;9.100;2023-02-15T09:15:28;100065.50;;;2.87;100.00
14120;BME280;7138;49.246;9.100;2023-02-15T09:17:54;100066.50;;;2.89;100.00
14120;BME280;7138;49.246;9.100;2023-02-15T09:20:20;100068.16;;;2.88;100.00
14120;BME280;7138;49.246;9.100;2023-02-15T09:22:45;100062.66;;;2.97;100.00
14120;BME280;7138;49.246;9.100;2023-02-15T09:25:13;100059.50;;;3.02;100.00
14120;BME280;7138;49.246;9.100;2023-02-15T09:27:39;100061.91;;;2.99;100.00
14120;BME280;7138;49.246;9.100;2023-02-15T09:30:06;100067.75;;;2.97;100.00
14120;BME280;7138;49.246;9.100;2023-02-15T09:32:32;100060.00;;;2.95;100.00
14120;BME280;7138;49.246;9.100;2023-02-15T09:34:58;100052.66;;;3.01;100.00
14120;BME280;7138;49.246;9.100;2023-02-15T09:37:24;100052.78;;;3.04;100.00
14120;BME280;7138;49.246;9.100;2023-02-15T09:39:50;100031.34;;;3.01;100.00
14120;BME280;7138;49.246;9.100;2023-02-15T09:42:48;100035.66;;;3.02;100.00
14120;BME280;7138;49.246;9.100;2023-02-15T09:45:33;100034.28;;;3.08;100.00
14120;BME280;7138;49.246;9.100;2023-02-15T09:48:31;100048.66;;;3.06;100.00
14120;BME280;7138;49.246;9.100;2023-02-15T09:51:35;100032.19;;;3.17;100.00
14120;BME280;7138;49.246;9.100;2023-02-15T09:54:28;100050.47;;;3.25;100.00
14120;BME280;7138;49.246;9.100;2023-02-15T09:57:04;100044.63;;;3.27;100.00
14120;BME280;7138;49.246;9.100;2023-02-15T09:59:47;100043.97;;;3.31;99.29
14120;BME280;7138;49.246;9.100;2023-02-15T10:02:38;100040.31;;;3.44;99.57
14120;BME280;7138;49.246;9.100;2023-02-15T10:05:24;100042.97;;;3.46;99.65
14120;BME280;7138;49.246;9.100;2023-02-15T10:08:24;100037.19;;;3.50;98.82
14120;BME280;7138;49.246;9.100;2023-02-15T10:11:10;100043.84;;;3.46;97.65
14120;BME280;7138;49.246;9.100;2023-02-15T10:14:34;100044.72;;;3.47;97.78
14120;BME280;7138;49.246;9.100;2023-02-15T10:17:23;100043.13;;;3.49;97.77
14120;BME280;7138;49.246;9.100;2023-02-15T10:20:05;100047.50;;;3.51;98.31
14120;BME280;7138;49.246;9.100;2023-02-15T10:22:55;100038.31;;;3.55;97.45
14120;BME280;7138;49.246;9.100;2023-02-15T10:25:41;100037.28;;;3.51;97.48
14120;BME280;7138;49.246;9.100;2023-02-15T10:28:16;100034.94;;;3.56;97.87
14120;BME280;7138;49.246;9.100;2023-02-15T10:30:48;100017.41;;;3.46;98.16
14120;BME280;7138;49.246;9.100;2023-02-15T10:33:38;100035.50;;;3.68;97.81
14120;BME280;7138;49.246;9.100;2023-02-15T10:36:20;100030.53;;;3.71;97.90
14120;BME280;7138;49.246;9.100;2023-02-15T10:38:58;100024.94;;;3.78;97.69
14120;BME280;7138;49.246;9.100;2023-02-15T10:41:42;100021.72;;;3.82;96.56
14120;BME280;7138;49.246;9.100;2023-02-15T10:44:32;100017.69;;;3.87;97.16
14120;BME280;7138;49.246;9.100;2023-02-15T10:47:20;100020.53;;;3.93;96.91
14120;BME280;7138;49.246;9.100;2023-02-15T10:50:19;100019.00;;;3.97;96.18
14120;BME280;7138;49.246;9.100;2023-02-15T10:52:58;100022.88;;;3.89;95.93
14120;BME280;7138;49.246;9.100;2023-02-15T10:55:41;100023.69;;;3.88;96.52
14120;BME280;7138;49.246;9.100;2023-02-15T10:58:23;100025.59;;;3.92;96.75
14120;BME280;7138;49.246;9.100;2023-02-15T11:01:02;100020.66;;;3.96;96.22
14120;BME280;7138;49.246;9.100;2023-02-15T11:03:51;100019.78;;;3.96;95.96
14120;BME280;7138;49.246;9.100;2023-02-15T11:06:22;100018.13;;;3.96;96.02
14120;BME280;7138;49.246;9.100;2023-02-15T11:08:55;100012.63;;;4.06;96.24
14120;BME280;7138;49.246;9.100;2023-02-15T11:11:27;100007.66;;;4.09;95.41
14120;BME280;7138;49.246;9.100;2023-02-15T11:13:59;100009.28;;;4.07;95.78
14120;BME280;7138;49.246;9.100;2023-02-15T11:16:32;100005.97;;;4.10;96.06
14120;BME280;7138;49.246;9.100;2023-02-15T11:19:06;99996.38;;;4.06;95.67
14120;BME280;7138;49.246;9.100;2023-02-15T11:21:39;100008.41;;;4.26;95.99
14120;BME280;7138;49.246;9.100;2023-02-15T11:24:11;100012.19;;;4.34;96.25
14120;BME280;7138;49.246;9.100;2023-02-15T11:26:41;100015.38;;;4.28;94.11
14120;BME280;7138;49.246;9.100;2023-02-15T11:29:11;100008.06;;;4.18;95.16
14120;BME280;7138;49.246;9.100;2023-02-15T11:31:44;100016.50;;;4.35;96.00
14120;BME280;7138;49.246;9.100;2023-02-15T11:34:18;100012.81;;;4.48;95.68
14120;BME280;7138;49.246;9.100;2023-02-15T11:36:50;100007.34;;;4.59;95.09
14120;BME280;7138;49.246;9.100;2023-02-15T11:39:19;100009.75;;;4.75;94.96
14120;BME280;7138;49.246;9.100;2023-02-15T11:41:50;100003.50;;;4.88;93.89
14120;BME280;7138;49.246;9.100;2023-02-15T11:44:24;99999.38;;;4.91;93.75
14120;BME280;7138;49.246;9.100;2023-02-15T11:46:52;99992.44;;;4.89;92.77
14120;BME280;7138;49.246;9.100;2023-02-15T11:49:25;99993.25;;;4.88;93.12
14120;BME280;7138;49.246;9.100;2023-02-15T11:51:56;99984.94;;;4.93;93.87
14120;BME280;7138;49.246;9.100;2023-02-15T11:54:28;99976.56;;;4.97;94.13
14120;BME280;7138;49.246;9.100;2023-02-15T11:56:56;99956.00;;;4.96;94.78
14120;BME280;7138;49.246;9.100;2023-02-15T11:59:32;99979.69;;;5.11;94.53
14120;BME280;7138;49.246;9.100;2023-02-15T12:01:58;99972.44;;;5.22;94.11
14120;BME280;7138;49.246;9.100;2023-02-15T12:04:29;99975.19;;;5.26;93.51
14120;BME280;7138;49.246;9.100;2023-02-15T12:07:02;99982.06;;;5.27;92.67
14120;BME280;7138;49.246;9.100;2023-02-15T12:09:35;99973.75;;;5.33;93.36
14120;BME280;7138;49.246;9.100;2023-02-15T12:12:21;99952.81;;;5.43;92.83
14120;BME280;7138;49.246;9.100;2023-02-15T12:14:53;99958.94;;;5.46;91.98
14120;BME280;7138;49.246;9.100;2023-02-15T12:17:22;99963.44;;;5.52;92.84
14120;BME280;7138;49.246;9.100;2023-02-15T12:19:51;99958.94;;;5.46;92.28
14120;BME280;7138;49.246;9.100;2023-02-15T12:22:24;99957.94;;;5.43;92.41
14120;BME280;7138;49.246;9.100;2023-02-15T12:24:54;99950.63;;;5.31;92.17
14120;BME280;7138;49.246;9.100;2023-02-15T12:27:24;99951.13;;;5.43;92.05
14120;BME280;7138;49.246;9.100;2023-02-15T12:29:56;99946.13;;;5.46;92.52
14120;BME280;7138;49.246;9.100;2023-02-15T12:32:26;99950.03;;;5.59;92.89
14120;BME280;7138;49.246;9.100;2023-02-15T12:35:00;99949.03;;;5.78;93.31
14120;BME280;7138;49.246;9.100;2023-02-15T12:37:30;99953.53;;;5.83;92.10
14120;BME280;7138;49.246;9.100;2023-02-15T12:39:58;99944.47;;;5.91;91.33
14120;BME280;7138;49.246;9.100;2023-02-15T12:42:26;99950.47;;;5.92;91.31
14120;BME280;7138;49.246;9.100;2023-02-15T12:44:59;99947.41;;;6.02;91.77
14120;BME280;7138;49.246;9.100;2023-02-15T12:47:26;99938.44;;;6.13;91.24
14120;BME280;7138;49.246;9.100;2023-02-15T12:50:09;99933.69;;;6.24;90.89
14120;BME280;7138;49.246;9.100;2023-02-15T12:52:45;99936.00;;;6.16;90.27
14120;BME280;7138;49.246;9.100;2023-02-15T12:55:22;99919.03;;;6.21;90.96
14120;BME280;7138;49.246;9.100;2023-02-15T12:57:48;99928.94;;;6.34;92.19
14120;BME280;7138;49.246;9.100;2023-02-15T13:00:28;99903.59;;;6.43;90.11
14120;BME280;7138;49.246;9.100;2023-02-15T13:02:59;99909.28;;;6.60;91.05
14120;BME280;7138;49.246;9.100;2023-02-15T13:05:32;99914.91;;;6.74;89.85
14120;BME280;7138;49.246;9.100;2023-02-15T13:08:08;99898.00;;;6.80;89.67
14120;BME280;7138;49.246;9.100;2023-02-15T13:10:40;99896.47;;;6.85;88.18
14120;BME280;7138;49.246;9.100;2023-02-15T13:13:10;99883.09;;;6.95;89.46
14120;BME280;7138;49.246;9.100;2023-02-15T13:15:41;99888.06;;;6.91;88.99
14120;BME280;7138;49.246;9.100;2023-02-15T13:18:16;99885.88;;;7.01;89.09
14120;BME280;7138;49.246;9.100;2023-02-15T13:20:44;99873.91;;;7.03;88.86
14120;BME280;7138;49.246;9.100;2023-02-15T13:23:27;99878.63;;;7.17;87.99
14120;BME280;7138;49.246;9.100;2023-02-15T13:25:57;99875.38;;;7.22;88.31
14120;BME280;7138;49.246;9.100;2023-02-15T13:28:33;99866.28;;;7.33;88.47
14120;BME280;7138;49.246;9.100;2023-02-15T13:31:03;99866.56;;;7.42;88.29